createdAt,value
2022-10-18T05:11:42.911Z,24.90
2022-10-18T05:34:48.063Z,26.65
2022-10-18T05:38:09.301Z,23.38
2022-10-18T05:59:04.553Z,25.13
2022-10-18T06:11:29.105Z,25.52
2022-10-18T06:43:54.449Z,23.15
2022-10-18T06:46:44.363Z,23.85
2022-10-18T06:49:18.955Z,22.85
2022-10-18T06:51:46.906Z,22.92
2022-10-18T06:54:19.143Z,25.48
2022-10-18T06:56:52.917Z,25.48
2022-10-18T07:03:53.831Z,26.15
2022-10-18T07:06:35.094Z,27.83
2022-10-18T07:09:51.344Z,27.02
2022-10-18T07:12:46.619Z,26.30
2022-10-18T07:16:01.318Z,27.67
2022-10-18T07:22:46.822Z,27.40
2022-10-18T07:29:19.480Z,26.80
2022-10-18T07:32:24.976Z,26.57
2022-10-18T07:46:50.913Z,23.70
2022-10-18T07:56:28.886Z,24.25
2022-10-18T07:58:56.924Z,22.35
2022-10-18T08:01:25.633Z,24.00
2022-10-18T08:03:53.902Z,24.13
2022-10-18T08:06:23.145Z,23.90
2022-10-18T08:08:51.035Z,23.25
2022-10-18T08:11:21.304Z,22.17
2022-10-18T08:13:49.139Z,21.27
2022-10-18T08:16:22.740Z,22.45
2022-10-18T08:18:50.806Z,21.27
2022-10-18T08:21:20.256Z,22.33
2022-10-18T08:23:48.827Z,20.45
2022-10-18T08:26:19.009Z,18.90
2022-10-18T08:28:54.186Z,19.00
2022-10-18T08:31:31.260Z,19.98
2022-10-18T08:33:58.753Z,20.02
2022-10-18T08:36:26.332Z,19.20
2022-10-18T08:38:53.886Z,18.75
2022-10-18T08:41:36.245Z,18.70
2022-10-18T08:44:18.797Z,18.75
2022-10-18T08:46:49.500Z,17.23
2022-10-18T08:49:47.269Z,16.30
2022-10-18T08:52:48.813Z,17.73
2022-10-18T08:55:25.616Z,17.83
2022-10-18T08:57:53.406Z,17.40
2022-10-18T09:00:24.094Z,16.40
2022-10-18T09:03:13.379Z,17.33
2022-10-18T09:05:55.333Z,17.65
2022-10-18T09:08:22.793Z,16.65
2022-10-18T09:11:10.228Z,17.25
2022-10-18T09:13:40.360Z,17.30
2022-10-18T09:16:21.363Z,17.25
2022-10-18T09:19:03.703Z,18.13
2022-10-18T09:21:54.122Z,17.20
2022-10-18T09:24:37.444Z,17.58
2022-10-18T09:27:26.806Z,17.70
2022-10-18T09:30:10.196Z,18.38
2022-10-18T09:32:51.082Z,17.13
2022-10-18T09:35:24.260Z,18.60
2022-10-18T09:38:01.015Z,18.13
2022-10-18T09:40:33.184Z,19.00
2022-10-18T09:43:08.254Z,17.70
2022-10-18T09:45:39.995Z,17.67
2022-10-18T09:48:17.261Z,16.10
2022-10-18T09:51:02.382Z,16.17
2022-10-18T09:53:41.215Z,16.02
2022-10-18T09:56:22.562Z,16.92
2022-10-18T09:58:51.579Z,16.15
2022-10-18T10:01:23.111Z,16.50
2022-10-18T10:03:51.027Z,16.50
2022-10-18T10:06:18.506Z,17.08
2022-10-18T10:08:55.056Z,16.33
2022-10-18T10:11:58.396Z,16.45
2022-10-18T10:14:28.847Z,17.65
2022-10-18T10:17:05.852Z,17.02
2022-10-18T10:19:37.678Z,17.40
2022-10-18T10:22:14.171Z,17.25
2022-10-18T10:24:53.312Z,17.73
2022-10-18T10:27:34.041Z,17.50
2022-10-18T10:30:07.565Z,17.08
2022-10-18T10:32:49.478Z,17.45
2022-10-18T10:35:54.376Z,16.88
2022-10-18T10:38:29.658Z,11.70
2022-10-18T10:40:58.356Z,11.68
2022-10-18T10:43:44.311Z,13.05
2022-10-18T10:46:20.296Z,12.57
2022-10-18T10:49:21.648Z,11.20
2022-10-18T10:52:02.521Z,10.75
2022-10-18T10:54:50.290Z,12.40
2022-10-18T10:57:28.306Z,13.63
2022-10-18T10:59:59.736Z,15.95
2022-10-18T11:02:36.071Z,17.25
2022-10-18T11:05:23.205Z,17.52
2022-10-18T11:07:55.355Z,18.02
2022-10-18T11:10:31.106Z,16.42
2022-10-18T11:13:23.739Z,12.82
2022-10-18T11:16:00.444Z,13.55
2022-10-18T11:18:34.270Z,11.95
2022-10-18T11:21:11.605Z,12.90
2022-10-18T11:23:42.123Z,12.23
2022-10-18T11:26:12.504Z,9.65
2022-10-18T11:29:12.273Z,9.10
2022-10-18T11:31:45.165Z,10.88
2022-10-18T11:34:46.373Z,10.48
2022-10-18T11:37:45.207Z,9.98
2022-10-18T11:40:51.458Z,8.85
2022-10-18T11:44:04.024Z,8.55
2022-10-18T11:47:10.343Z,9.40
2022-10-18T11:52:34.634Z,11.35
2022-10-18T11:55:23.004Z,12.30
2022-10-18T11:58:12.638Z,12.38
2022-10-18T12:00:50.971Z,14.10
2022-10-18T12:03:55.749Z,13.63
2022-10-18T12:06:28.350Z,13.43
2022-10-18T12:09:02.956Z,13.13
2022-10-18T12:11:46.913Z,12.98
2022-10-18T12:14:30.802Z,13.43
2022-10-18T12:17:35.689Z,14.30
2022-10-18T12:19:52.306Z,15.05
2022-10-18T12:22:22.783Z,15.63
2022-10-18T12:24:50.565Z,16.33
2022-10-18T12:27:22.718Z,15.68
2022-10-18T12:30:06.796Z,17.00
2022-10-18T12:32:36.550Z,16.55
2022-10-18T12:35:17.032Z,18.95
2022-10-18T12:38:06.178Z,19.55
2022-10-18T12:40:41.507Z,19.90
2022-10-18T12:43:16.832Z,25.63
2022-10-18T12:46:10.712Z,28.08
2022-10-18T12:48:45.481Z,26.08
2022-10-18T12:51:15.400Z,26.63
2022-10-18T12:53:49.177Z,26.48
2022-10-18T12:56:28.583Z,28.23
2022-10-18T12:59:14.348Z,29.83
2022-10-18T13:01:50.883Z,29.02
2022-10-18T13:04:27.524Z,30.75
2022-10-18T13:06:58.162Z,31.00
2022-10-18T13:09:28.811Z,24.98
2022-10-18T13:12:18.795Z,22.80
2022-10-18T13:15:26.346Z,20.42
2022-10-18T13:18:03.296Z,20.80
2022-10-18T13:20:44.278Z,23.33
2022-10-18T13:23:35.362Z,22.23
2022-10-18T13:26:20.355Z,21.42
2022-10-18T13:29:20.749Z,22.58
2022-10-18T13:31:59.583Z,24.08
2022-10-18T13:34:34.797Z,21.75
2022-10-18T13:37:11.689Z,22.50
2022-10-18T13:39:48.584Z,24.23
2022-10-18T13:43:04.599Z,22.23
2022-10-18T13:52:27.722Z,23.77
2022-10-18T13:55:19.693Z,24.70
2022-10-18T13:57:59.106Z,24.67
2022-10-18T14:00:32.388Z,24.65
2022-10-18T14:03:00.260Z,26.58
2022-10-18T14:06:26.531Z,25.15
2022-10-18T14:10:09.149Z,24.65
2022-10-18T14:13:13.169Z,24.88
2022-10-18T14:16:23.384Z,25.60
2022-10-18T14:18:57.907Z,23.75
2022-10-18T14:21:37.703Z,24.25
2022-10-18T14:24:17.774Z,26.17
2022-10-18T14:26:45.334Z,25.58
2022-10-18T14:29:22.216Z,24.67
2022-10-18T14:32:03.138Z,26.60
2022-10-18T14:34:37.892Z,26.77
2022-10-18T14:37:39.477Z,25.67
2022-10-18T14:40:40.819Z,26.45
2022-10-18T14:43:16.874Z,26.77
2022-10-18T14:49:57.860Z,27.95
2022-10-18T14:52:35.129Z,28.48
2022-10-18T14:55:16.348Z,27.52
2022-10-18T14:57:46.461Z,26.52
2022-10-18T15:00:31.438Z,25.75
2022-10-18T15:03:13.695Z,25.23
2022-10-18T15:06:10.468Z,26.63
2022-10-18T15:08:44.975Z,25.80
2022-10-18T15:11:20.241Z,25.20
2022-10-18T15:14:13.884Z,24.75
2022-10-18T15:16:46.866Z,23.60
2022-10-18T15:19:14.412Z,24.88
2022-10-18T15:25:33.020Z,25.33
2022-10-18T15:28:39.687Z,25.63
2022-10-18T15:31:33.617Z,25.27
2022-10-18T15:36:49.607Z,23.15
2022-10-18T15:39:21.522Z,24.23
2022-10-18T15:41:55.399Z,24.25
2022-10-18T15:44:51.279Z,24.00
2022-10-18T15:47:21.744Z,24.77
2022-10-18T15:49:56.260Z,24.48
2022-10-18T15:52:39.353Z,23.73
2022-10-18T15:55:31.611Z,24.05
2022-10-18T15:58:23.028Z,24.25
2022-10-18T16:00:52.666Z,23.85
2022-10-18T16:03:24.706Z,25.30
2022-10-18T16:06:07.948Z,25.15
2022-10-18T16:08:44.518Z,24.70
2022-10-18T16:11:14.190Z,24.52
2022-10-18T16:13:42.682Z,25.40
2022-10-18T16:16:19.785Z,24.98
2022-10-18T16:18:47.769Z,25.67
2022-10-18T16:21:27.665Z,24.65
2022-10-18T16:23:58.586Z,24.60
2022-10-18T16:26:27.740Z,24.42
2022-10-18T16:28:56.234Z,25.38
2022-10-18T16:31:26.491Z,23.98
2022-10-18T16:33:55.187Z,25.10
2022-10-18T16:36:26.241Z,24.48
2022-10-18T16:38:55.170Z,24.08
2022-10-18T16:41:23.367Z,25.70
2022-10-18T16:43:56.285Z,24.50
2022-10-18T16:46:30.323Z,24.40
2022-10-18T16:48:58.613Z,24.45
2022-10-18T16:51:26.346Z,25.35
2022-10-18T16:53:54.420Z,24.60
2022-10-18T16:56:23.456Z,25.05
2022-10-18T16:58:51.710Z,25.20
2022-10-18T17:01:21.927Z,25.75
2022-10-18T17:03:52.240Z,24.80
2022-10-18T17:06:23.676Z,24.92
2022-10-18T17:08:54.460Z,24.70
2022-10-18T17:11:27.045Z,25.63
2022-10-18T17:13:55.424Z,25.45
2022-10-18T17:18:59.021Z,26.50
2022-10-18T17:21:27.835Z,26.38
2022-10-18T17:23:55.931Z,26.13
2022-10-18T17:26:28.859Z,26.05
2022-10-18T17:29:00.568Z,27.50
2022-10-18T17:31:29.747Z,27.83
2022-10-18T17:34:05.927Z,25.15
2022-10-18T17:36:34.116Z,30.27
2022-10-18T17:39:02.172Z,29.95
2022-10-18T17:41:30.823Z,29.92
2022-10-18T17:43:58.430Z,28.55
2022-10-18T17:46:26.117Z,31.67
2022-10-18T17:48:54.031Z,30.52
2022-10-18T17:51:22.058Z,30.50
2022-10-18T17:53:49.607Z,29.55
2022-10-18T17:56:17.164Z,31.40
2022-10-18T17:58:45.686Z,32.17
2022-10-18T18:01:18.694Z,31.52
2022-10-18T18:03:49.815Z,32.42
2022-10-18T18:06:20.164Z,32.80
2022-10-18T18:08:49.003Z,32.80
2022-10-18T18:11:17.848Z,33.40
2022-10-18T18:13:47.707Z,34.88
2022-10-18T18:16:21.793Z,34.33
2022-10-18T18:18:51.965Z,32.75
2022-10-18T18:21:20.347Z,32.67
2022-10-18T18:23:48.817Z,33.78
2022-10-18T18:26:18.028Z,31.88
2022-10-18T18:28:45.933Z,33.90
2022-10-18T18:31:19.639Z,32.15
2022-10-18T18:33:47.130Z,31.80
2022-10-18T18:36:14.669Z,32.70
2022-10-18T18:38:45.322Z,33.40
2022-10-18T18:41:21.994Z,33.15
2022-10-18T18:43:58.454Z,32.05
2022-10-18T18:46:29.066Z,31.35
2022-10-18T18:48:59.959Z,31.85
2022-10-18T18:51:28.552Z,31.90
2022-10-18T18:53:56.085Z,33.92
2022-10-18T18:56:25.597Z,32.67
2022-10-18T18:58:54.013Z,32.90
2022-10-18T19:01:24.115Z,32.72
2022-10-18T19:03:54.463Z,32.60
2022-10-18T19:06:34.789Z,32.10
2022-10-18T19:09:04.874Z,32.22
2022-10-18T19:11:34.755Z,33.40
2022-10-18T19:14:03.067Z,33.00
2022-10-18T19:16:41.433Z,32.53
2022-10-18T19:19:16.578Z,32.25
2022-10-18T19:21:53.290Z,32.38
2022-10-18T19:24:22.825Z,33.58
2022-10-18T19:26:55.749Z,33.53
2022-10-18T19:29:29.838Z,33.20
2022-10-18T19:32:00.752Z,32.03
2022-10-18T19:34:30.507Z,31.98
2022-10-18T19:36:58.266Z,31.83
2022-10-18T19:39:31.349Z,31.73
2022-10-18T19:42:03.596Z,32.90
2022-10-18T19:44:33.330Z,33.83
2022-10-18T19:47:01.568Z,32.13
2022-10-18T19:49:36.236Z,33.28
2022-10-18T19:52:06.355Z,33.45
2022-10-18T19:54:37.174Z,33.22
2022-10-18T19:57:05.267Z,32.65
2022-10-18T19:59:33.493Z,32.00
2022-10-18T20:02:02.172Z,34.08
2022-10-18T20:04:34.687Z,31.67
2022-10-18T20:07:03.277Z,33.70
2022-10-18T20:09:37.483Z,33.05
2022-10-18T20:12:17.652Z,32.30
2022-10-18T20:14:45.718Z,33.22
2022-10-18T20:17:18.531Z,33.10
2022-10-18T20:19:53.949Z,33.83
2022-10-18T20:22:35.575Z,32.47
2022-10-18T20:25:05.225Z,32.50
2022-10-18T20:27:34.373Z,32.25
2022-10-18T20:30:14.802Z,32.38
2022-10-18T20:32:54.279Z,34.13
2022-10-18T20:35:31.206Z,34.22
2022-10-18T20:38:01.662Z,33.17
2022-10-18T20:40:37.885Z,34.15
2022-10-18T20:43:14.096Z,34.33
2022-10-18T20:45:45.251Z,32.78
2022-10-18T20:48:12.900Z,33.22
2022-10-18T20:50:42.194Z,33.67
2022-10-18T20:53:09.755Z,33.47
2022-10-18T20:55:38.969Z,33.13
2022-10-18T20:58:07.017Z,32.97
2022-10-18T21:00:35.429Z,32.78
2022-10-18T21:03:03.795Z,33.03
2022-10-18T21:05:32.828Z,32.20
2022-10-18T21:08:01.430Z,32.70
2022-10-18T21:10:35.427Z,31.83
2022-10-18T21:13:15.236Z,32.15
2022-10-18T21:15:56.039Z,33.40
2022-10-18T21:18:25.657Z,32.17
2022-10-18T21:20:54.029Z,31.42
2022-10-18T21:23:22.775Z,32.25
2022-10-18T21:25:51.328Z,31.08
2022-10-18T21:28:18.971Z,31.10
2022-10-18T21:30:46.470Z,32.83
2022-10-18T21:33:16.667Z,31.15
2022-10-18T21:35:50.219Z,31.52
2022-10-18T21:38:18.178Z,31.70
2022-10-18T21:40:55.992Z,31.85
2022-10-18T21:48:02.640Z,32.55
2022-10-18T21:50:30.395Z,31.92
2022-10-18T21:53:01.657Z,32.20
2022-10-18T21:55:29.396Z,33.42
2022-10-18T21:57:57.059Z,33.28
2022-10-18T22:00:24.713Z,32.42
2022-10-18T22:03:38.040Z,32.97
2022-10-18T22:09:31.140Z,31.93
2022-10-18T22:12:51.895Z,34.83
2022-10-18T22:15:24.850Z,33.47
2022-10-18T22:17:57.041Z,33.05
2022-10-18T22:20:35.286Z,32.63
2022-10-18T22:23:13.107Z,34.65
2022-10-18T22:25:40.917Z,34.83
2022-10-18T22:28:16.420Z,35.30
2022-10-18T22:30:46.408Z,36.20
2022-10-18T22:33:19.268Z,34.78
2022-10-18T22:35:54.412Z,35.53
2022-10-18T22:38:26.559Z,34.58
2022-10-18T22:41:05.406Z,33.72
2022-10-18T22:43:34.635Z,32.65
2022-10-18T22:46:10.750Z,29.35
2022-10-18T22:48:41.338Z,29.73
2022-10-18T22:51:11.954Z,32.38
2022-10-18T22:53:40.325Z,32.30
2022-10-18T22:56:11.540Z,34.13
2022-10-18T22:58:39.223Z,34.90
2022-10-18T23:01:12.305Z,36.63
2022-10-18T23:07:18.974Z,35.47
2022-10-18T23:09:48.489Z,36.30
2022-10-18T23:12:16.232Z,35.50
2022-10-18T23:14:44.711Z,35.22
2022-10-18T23:17:12.584Z,33.15
2022-10-18T23:19:40.141Z,35.60
2022-10-18T23:22:07.849Z,34.42
2022-10-18T23:24:38.547Z,35.53
2022-10-18T23:30:43.007Z,35.22
2022-10-18T23:33:13.219Z,35.05
2022-10-18T23:35:43.530Z,34.97
2022-10-18T23:38:15.245Z,31.88
2022-10-18T23:40:42.919Z,32.50
2022-10-18T23:43:10.580Z,33.92
2022-10-18T23:45:38.864Z,36.85
2022-10-18T23:48:07.002Z,34.88
2022-10-18T23:50:34.573Z,35.75
2022-10-18T23:53:02.301Z,34.08
2022-10-18T23:55:32.226Z,34.10
2022-10-18T23:58:01.957Z,34.60
